< < Back
Terminal Aerodrome Forecast


Current Version              Previous Versions:   1  2  3  4  5  6  7  8  9  

Terminal Aerodrome Forecast

057
FTUS42 KFFC 291731
TAFFTY
TAF
KFTY 291731Z 2918/3018 31006KT P6SM VCSH SCT050
      TEMPO 2920/2923 VRB10G20KT 6SM -TSRA BKN040CB
     FM300000 33003KT P6SM SCT100 BKN250
     FM301400 03005KT P6SM FEW040=



Latest METAR

144
SAUS70 KWBC 301000 RRC
MTRFTY
METAR KFTY 300953Z 06003KT 9SM CLR 26/23 A2998 RMK AO2 SLP139
T02560233


USA.gov is the U.S. government's official web portal to all federal, state and local government web resources and services.